首页
METAR-TAF:

METAR-TAF

机场 :

Land O' Lakes, 威斯康辛州, 美国

纬度: 46-09-14N, 经度: 089-12-43W, 海拔: 520米

当前天气观测

该预报发布于15分钟前的07:55 UTC
风速5节,风向北转西北
温度 -12°C
湿度 78%
气压 1008 hPa
能見度: 16.1公里
阴天层高于3600英尺

METAR: KLNL 100755Z AUTO 33005KT 10SM OVC036 M12/M15 A2978 RMK AO2 T11251152

时间: 02:10 (08:10 UTC)


TAF: 丢失

超过4000个机场的气象观测和天气预报(METAR&TAF报告)。

可查询的气象台以黄色和红色小点在地图上表示。

将鼠标移到小点上方,可查看气象台名称。

然后点击查看天气观测和预报。

如需切换地图:点击带黑十字的绿色按钮放大地图;点击带横线的绿色按钮缩小地图;或者点击绿色箭头查看邻近地区的地图。


METAR-TAF: